5 day graph

You are here

Hive Data

Page: 1 of 16645  Records: 998690

Row Date Time Hive Temp Hive Humidity Outside Temp Outside Humidity Bottom Board Temp Outside Wall Temp Electronics Temp Light Levels inHG Fan Heat Cover Notes
Clear Sorted By: Date Time (sql) ascending, Row descending
View 367393 Jan 1 2000 12:01:16am 63.14 66 53.78 57 54.5 55.4 57.2 276 29.52 0 0 0 NA
View 693066 Jan 1 2000 12:02:16am 89.24 43 52.7 82 47.3 64.4 71.6 216 29.1 0 0 0 NA
View 367394 Jan 1 2000 12:02:16am 67.1 58 53.78 56 54.5 55.85 57.2 271 29.51 0 0 0 NA
View 265732 Jan 1 2000 12:02:28am 65.84 69 35.24 79 107.6 38.75 59 444 28.97 0 0 0 NA
View 693067 Jan 1 2000 12:03:16am 89.24 44 52.88 81 47.3 64.4 71.6 215 29.1 0 0 0 NA
View 367395 Jan 1 2000 12:03:16am 70.16 62 53.78 56 54.5 55.4 57.2 269 29.51 0 0 0 NA
View 265733 Jan 1 2000 12:03:28am 65.84 70 35.24 78 106.25 38.75 59 452 28.97 0 0 0 NA
View 269270 Jan 1 2000 12:03:29am 74.12 49 43.52 34 63.05 44.6 53.6 273 29.25 0 0 0 NA
View 245183 Jan 1 2000 12:03:29am 59.9 60 33.98 25 103.1 33.35 55.4 596 29.22 0 0 0 NA
View 235634 Jan 1 2000 12:03:48am 76.46 73 56.3 84 64.4 55.85 71.6 753 29.47 0 0 0 NA
View 693068 Jan 1 2000 12:04:17am 89.24 45 52.88 80 47.3 63.95 71.6 214 29.1 0 0 0 NA
View 269271 Jan 1 2000 12:04:29am 75.74 51 43.34 35 63.05 45.05 53.6 269 29.26 0 0 0 NA
View 265734 Jan 1 2000 12:04:29am 66.02 73 35.24 79 105.35 38.75 59 460 28.97 0 0 0 NA
View 245184 Jan 1 2000 12:04:29am 60.08 60 33.8 26 101.3 33.35 55.4 602 29.23 0 0 0 NA
View 235635 Jan 1 2000 12:04:49am 76.64 71 56.3 83 64.4 55.85 71.6 751 29.47 0 0 0 NA
View 693069 Jan 1 2000 12:05:17am 89.24 43 52.88 80 47.3 63.95 71.6 214 29.1 0 0 0 NA
View 269272 Jan 1 2000 12:05:30am 77.18 48 43.16 35 63.05 45.05 53.6 267 29.25 0 0 0 NA
View 245185 Jan 1 2000 12:05:30am 60.26 63 33.98 26 99.95 33.35 55.4 609 29.23 0 0 0 NA
View 265735 Jan 1 2000 12:05:31am 66.02 65 35.06 79 104 38.75 59 466 28.97 0 0 0 NA
View 235636 Jan 1 2000 12:05:51am 76.64 71 56.3 83 64.4 55.85 71.6 747 29.47 0 0 0 NA
View 693070 Jan 1 2000 12:06:17am 89.42 43 52.88 78 47.3 63.5 71.6 217 29.1 0 0 0 NA
View 269273 Jan 1 2000 12:06:30am 78.26 45 42.98 35 63.05 45.05 55.4 265 29.26 0 0 0 NA
View 265736 Jan 1 2000 12:06:32am 66.02 67 35.06 78 103.1 38.3 59 475 28.97 0 0 0 NA
View 245186 Jan 1 2000 12:06:32am 60.44 66 33.8 25 98.6 33.35 55.4 616 29.22 0 0 0 NA
View 235637 Jan 1 2000 12:06:51am 76.64 73 56.3 83 64.4 55.85 71.6 745 29.47 0 0 0 NA
View 245128 Jan 1 2000 12:07:06am 62.24 59 33.26 24 41.45 34.25 51.8 648 29.38 0 0 0 NA
View 693071 Jan 1 2000 12:07:18am 89.42 46 52.7 79 47.3 63.5 71.6 219 29.1 0 0 0 NA
View 269274 Jan 1 2000 12:07:30am 79.34 45 42.8 35 62.6 45.05 55.4 262 29.26 0 0 0 NA
View 265737 Jan 1 2000 12:07:33am 66.2 68 35.06 78 101.75 38.75 59 478 28.97 0 0 0 NA
View 245187 Jan 1 2000 12:07:33am 60.44 59 33.8 25 97.25 33.35 55.4 621 29.23 0 0 0 NA
View 235638 Jan 1 2000 12:07:52am 76.64 70 56.3 83 64.4 55.85 71.6 746 29.47 0 0 0 NA
View 245129 Jan 1 2000 12:08:06am 62.24 51 33.26 24 41.45 34.25 51.8 647 29.38 0 0 0 NA
View 693072 Jan 1 2000 12:08:18am 89.42 45 52.7 80 47.3 63.5 71.6 218 29.1 0 0 0 NA
View 269275 Jan 1 2000 12:08:31am 80.24 44 42.8 35 62.6 45.05 55.4 260 29.26 0 0 0 NA
View 265738 Jan 1 2000 12:08:34am 66.2 71 35.06 78 100.85 38.3 59 479 28.98 0 0 0 NA
View 245188 Jan 1 2000 12:08:34am 60.62 60 33.8 25 95.9 33.35 55.4 627 29.23 0 0 0 NA
View 235639 Jan 1 2000 12:08:53am 76.64 67 56.3 82 64.4 55.85 71.6 747 29.47 0 0 0 NA
View 245130 Jan 1 2000 12:09:07am 62.24 57 33.26 23 41.45 33.8 51.8 647 29.39 0 0 0 NA
View 269276 Jan 1 2000 12:09:31am 80.96 46 42.62 35 62.6 45.5 57.2 258 29.25 0 0 0 NA
View 265739 Jan 1 2000 12:09:34am 66.2 70 35.06 78 99.95 38.3 59 486 28.97 0 0 0 NA
View 245189 Jan 1 2000 12:09:36am 60.62 62 33.8 25 94.55 33.35 55.4 632 29.23 0 0 0 NA
View 235640 Jan 1 2000 12:09:54am 76.46 67 56.3 83 64.4 55.85 71.6 750 29.47 0 0 0 NA
View 245131 Jan 1 2000 12:10:08am 62.24 50 33.26 24 41.45 33.8 51.8 648 29.38 0 0 0 NA
View 269277 Jan 1 2000 12:10:31am 81.68 43 42.62 36 62.6 45.5 57.2 256 29.25 0 0 0 NA
View 245190 Jan 1 2000 12:10:35am 60.62 65 33.8 25 93.65 33.35 55.4 636 29.23 0 0 0 NA
View 265740 Jan 1 2000 12:10:36am 66.2 71 34.88 78 99.5 38.3 59 494 28.98 0 0 0 NA
View 235641 Jan 1 2000 12:10:56am 76.46 69 56.3 83 64.85 55.85 71.6 547 29.47 0 0 0 NA
View 245132 Jan 1 2000 12:11:10am 62.06 51 33.26 24 41.45 33.8 51.8 646 29.39 0 0 0 NA
View 269278 Jan 1 2000 12:11:31am 82.4 44 42.44 36 62.6 45.5 59 255 29.25 0 0 0 NA
View 265741 Jan 1 2000 12:11:37am 66.2 71 34.88 78 98.6 38.3 59 505 28.98 0 0 0 NA
View 245191 Jan 1 2000 12:11:37am 60.8 66 33.8 25 92.75 33.35 55.4 641 29.23 0 0 0 NA
View 245133 Jan 1 2000 12:12:11am 62.06 50 33.26 24 41.45 33.8 51.8 647 29.37 0 0 0 NA
View 269279 Jan 1 2000 12:12:32am 82.76 43 42.44 36 62.6 45.5 59 253 29.25 0 0 0 NA
View 265742 Jan 1 2000 12:12:38am 66.2 69 34.7 78 97.7 38.3 59 519 28.98 0 0 0 NA
View 245192 Jan 1 2000 12:12:38am 60.8 62 33.98 25 91.85 33.35 55.4 646 29.23 0 0 0 NA
View 245134 Jan 1 2000 12:13:11am 61.88 51 33.08 24 41.45 33.8 51.8 646 29.38 0 0 0 NA
View 269280 Jan 1 2000 12:13:32am 83.3 42 42.26 36 62.6 45.95 59 252 29.25 0 0 0 NA
View 63694 Jan 1 2000 12:13:38am 79.7 45 69.26 58 65.75 67.55 82.4 852 29.3 1 0 0 NA
View 245193 Jan 1 2000 12:13:39am 60.98 64 33.98 25 90.95 33.35 55.4 649 29.23 0 0 0 NA
View 265743 Jan 1 2000 12:13:40am 66.2 68 34.52 79 96.8 38.3 59 534 28.98 0 0 0 NA